Time;durP1;ratioP1;P1;durP2;ratioP2;P2;SDS_P1;SDS_P2;PMS_P1;PMS_P2;Temp;Humidity;BMP_temperature;BMP_pressure;BME280_temperature;BME280_humidity;BME280_pressure;Samples;Min_cycle;Max_cycle;Signal;HPM_P1;HPM_P2
2023/01/21 00:00:05;;;;;;;111.50;41.70;;;;;;;6.78;78.03;100176.59;108062;1254;71416;-64
2023/01/21 00:02:33;;;;;;;110.10;43.60;;;;;;;6.77;77.80;100171.04;108085;1253;74791;-64
2023/01/21 00:05:00;;;;;;;115.50;41.90;;;;;;;6.93;77.45;100169.48;107986;1255;63515;-64
2023/01/21 00:07:27;;;;;;;116.70;44.20;;;;;;;6.91;77.41;100170.05;108062;1253;61400;-64
2023/01/21 00:09:53;;;;;;;105.70;42.20;;;;;;;6.97;77.04;100162.05;108088;1253;75279;-64
2023/01/21 00:12:20;;;;;;;100.70;41.30;;;;;;;6.70;77.79;100162.81;108102;1253;72127;-64
2023/01/21 00:14:47;;;;;;;105.30;41.50;;;;;;;6.57;78.23;100166.57;108011;1253;74648;-65
2023/01/21 00:17:14;;;;;;;107.10;43.10;;;;;;;6.92;76.98;100167.92;108025;1253;63141;-59
2023/01/21 00:19:41;;;;;;;99.30;39.80;;;;;;;7.02;76.39;100175.05;108078;1253;60778;-61
2023/01/21 00:22:08;;;;;;;90.80;33.90;;;;;;;6.71;77.23;100174.13;108060;1254;75127;-63
2023/01/21 00:24:35;;;;;;;97.00;38.70;;;;;;;6.42;78.72;100171.55;108054;1253;72496;-64
2023/01/21 00:27:01;;;;;;;100.90;40.20;;;;;;;6.31;79.05;100175.94;108062;1253;74634;-64
2023/01/21 00:29:28;;;;;;;106.10;40.60;;;;;;;6.47;78.42;100173.90;107925;1253;61323;-65
2023/01/21 00:31:55;;;;;;;115.70;45.70;;;;;;;6.38;78.97;100175.82;108151;1253;59615;-61
2023/01/21 00:34:22;;;;;;;112.30;43.50;;;;;;;7.06;76.20;100169.55;108107;1253;73578;-64
2023/01/21 00:36:49;;;;;;;120.20;45.90;;;;;;;7.18;75.06;100167.35;108071;1253;72746;-63
2023/01/21 00:39:15;;;;;;;108.50;42.40;;;;;;;7.00;75.27;100166.53;108039;1253;72917;-64
2023/01/21 00:41:42;;;;;;;96.20;41.90;;;;;;;6.63;76.67;100166.27;108048;1254;63251;-63
2023/01/21 00:44:09;;;;;;;112.40;45.80;;;;;;;6.48;77.74;100166.91;108052;1253;62789;-65
2023/01/21 00:46:36;;;;;;;100.20;40.90;;;;;;;6.44;77.58;100172.91;108068;1253;75861;-64
2023/01/21 00:49:03;;;;;;;103.80;39.00;;;;;;;6.54;77.79;100167.65;107991;1254;72152;-63
2023/01/21 00:51:30;;;;;;;111.70;45.10;;;;;;;6.58;77.37;100171.95;107963;1257;74980;-65
2023/01/21 00:53:57;;;;;;;99.10;39.90;;;;;;;6.49;77.54;100175.42;107978;1254;63430;-64
2023/01/21 00:56:23;;;;;;;112.60;43.30;;;;;;;6.37;78.11;100175.66;107992;1254;62463;-64
2023/01/21 00:58:50;;;;;;;112.50;41.60;;;;;;;6.54;77.28;100181.63;107942;1254;73769;-64
2023/01/21 01:01:19;;;;;;;107.00;39.80;;;;;;;6.58;76.98;100179.80;108080;1254;70238;-61
2023/01/21 01:03:46;;;;;;;110.80;44.00;;;;;;;6.44;77.74;100182.70;108007;1254;73618;-63
2023/01/21 01:06:21;;;;;;;91.70;39.50;;;;;;;6.34;77.78;100184.09;108022;1254;60419;-64
2023/01/21 01:08:49;;;;;;;110.40;43.10;;;;;;;6.35;77.63;100189.14;108026;1254;62395;-63
2023/01/21 01:11:16;;;;;;;87.20;32.30;;;;;;;6.32;77.56;100184.13;107992;1254;74790;-63
2023/01/21 01:13:43;;;;;;;104.20;43.40;;;;;;;6.03;79.27;100189.16;107965;1254;72296;-63
2023/01/21 01:16:11;;;;;;;103.90;41.80;;;;;;;6.43;77.42;100193.86;107787;1255;74783;-62
2023/01/21 01:18:39;;;;;;;111.80;44.20;;;;;;;6.62;76.72;100191.40;108011;1256;62346;-64
2023/01/21 01:21:09;;;;;;;109.30;40.50;;;;;;;6.59;76.59;100187.78;108024;1254;62634;-65
2023/01/21 01:23:36;;;;;;;97.30;39.00;;;;;;;6.62;76.43;100181.80;107717;1254;75821;-62
2023/01/21 01:26:04;;;;;;;116.70;48.60;;;;;;;6.27;77.55;100178.11;107985;1254;72737;-62
2023/01/21 01:28:31;;;;;;;104.40;41.60;;;;;;;6.28;77.77;100168.34;108033;1255;74915;-62
2023/01/21 01:30:58;;;;;;;102.10;43.40;;;;;;;6.48;76.90;100167.24;108018;1256;61861;-64
2023/01/21 01:33:26;;;;;;;113.00;47.40;;;;;;;6.46;76.67;100157.17;108013;1254;61403;-63
2023/01/21 01:35:52;;;;;;;103.80;42.40;;;;;;;6.38;77.04;100157.67;107957;1254;76079;-62
2023/01/21 01:38:20;;;;;;;108.80;40.50;;;;;;;6.45;76.86;100154.23;108015;1254;72487;-63
2023/01/21 01:40:48;;;;;;;99.90;41.30;;;;;;;6.59;76.03;100150.13;107990;1256;75269;-62
2023/01/21 01:43:19;;;;;;;100.90;41.20;;;;;;;6.86;74.68;100141.18;108019;1255;62280;-63
2023/01/21 01:45:46;;;;;;;104.80;41.70;;;;;;;6.71;75.05;100144.98;108047;1254;62157;-63
2023/01/21 01:48:17;;;;;;;101.30;42.90;;;;;;;6.80;74.72;100148.13;108045;1253;72423;-63
2023/01/21 01:50:44;;;;;;;101.40;40.50;;;;;;;6.49;75.86;100151.02;108090;1253;72176;-62
2023/01/21 01:53:11;;;;;;;101.30;40.70;;;;;;;6.72;75.53;100149.16;108077;1253;74963;-64
2023/01/21 01:55:37;;;;;;;98.70;38.10;;;;;;;6.77;75.13;100146.44;107980;1253;62219;-62
2023/01/21 01:58:06;;;;;;;94.10;35.70;;;;;;;6.84;74.55;100144.70;107903;1253;61115;-63
2023/01/21 02:00:33;;;;;;;91.90;38.10;;;;;;;7.25;73.34;100149.03;107862;1254;75476;-64
2023/01/21 02:05:46;;;;;;;95.80;35.40;;;;;;;7.25;72.18;100151.48;107969;1256;73868;-61
2023/01/21 02:08:13;;;;;;;93.30;36.30;;;;;;;7.29;71.87;100150.17;107936;1254;63457;-61
2023/01/21 02:10:40;;;;;;;93.50;34.60;;;;;;;7.41;71.19;100154.08;107986;1254;62299;-61
2023/01/21 02:13:06;;;;;;;89.40;35.50;;;;;;;7.19;71.95;100151.44;107939;1254;76097;-64
2023/01/21 02:15:44;;;;;;;88.00;34.50;;;;;;;6.92;72.90;100151.35;107767;1254;69709;-64
2023/01/21 02:18:15;;;;;;;87.70;35.40;;;;;;;7.41;71.60;100145.17;107970;1254;74101;-63
2023/01/21 02:21:02;;;;;;;86.40;34.40;;;;;;;7.26;71.41;100147.60;108056;1254;61607;-65
2023/01/21 02:24:07;;;;;;;79.20;32.80;;;;;;;6.59;74.36;100146.46;108085;1254;61035;-64
2023/01/21 02:26:43;;;;;;;82.90;34.10;;;;;;;6.90;73.42;100144.92;107652;1264;74608;-63
2023/01/21 02:29:30;;;;;;;92.30;34.50;;;;;;;6.85;72.82;100146.08;107862;1254;72152;-63
2023/01/21 02:32:08;;;;;;;81.70;32.40;;;;;;;7.03;72.55;100141.51;107981;1254;74643;-63
2023/01/21 02:34:44;;;;;;;83.60;32.40;;;;;;;6.93;72.89;100137.69;107957;1254;60657;-64
2023/01/21 02:37:13;;;;;;;78.70;32.10;;;;;;;7.40;70.99;100137.85;107990;1254;62331;-63
2023/01/21 02:39:47;;;;;;;87.60;33.60;;;;;;;7.16;71.49;100142.61;108021;1254;74227;-64
2023/01/21 02:42:41;;;;;;;83.10;34.60;;;;;;;7.12;71.36;100146.04;107936;1254;72506;-64
2023/01/21 02:45:14;;;;;;;86.10;34.60;;;;;;;7.16;71.21;100157.45;107782;1260;74875;-65
2023/01/21 02:47:54;;;;;;;66.60;22.60;;;;;;;7.25;70.83;100163.17;108017;1254;63239;-63
2023/01/21 02:50:26;;;;;;;84.70;33.00;;;;;;;7.19;71.03;100163.14;108020;1255;61209;-63
2023/01/21 02:52:54;;;;;;;93.40;34.50;;;;;;;7.12;71.12;100165.91;107775;1253;75983;-63
2023/01/21 02:55:21;;;;;;;80.20;25.90;;;;;;;7.37;70.22;100177.23;108121;1259;72229;-63
2023/01/21 02:57:49;;;;;;;87.90;34.30;;;;;;;7.14;70.53;100188.04;107918;1254;72707;-62
2023/01/21 03:00:30;;;;;;;88.40;33.40;;;;;;;7.09;71.09;100193.05;108010;1253;63013;-63
2023/01/21 03:03:21;;;;;;;84.60;33.60;;;;;;;7.06;71.00;100194.00;107932;1259;61383;-64
2023/01/21 03:05:57;;;;;;;;;;;;;;;7.15;70.89;100194.83;108013;1254;73802;-63
2023/01/21 03:08:41;;;;;;;82.80;31.60;;;;;;;7.12;70.40;100197.34;108021;1254;70981;-64
2023/01/21 03:11:15;;;;;;;78.80;30.80;;;;;;;6.61;72.12;100202.23;108033;1254;74600;-67
2023/01/21 03:16:58;;;;;;;73.80;30.50;;;;;;;6.91;71.62;100190.46;107865;1254;61658;-62
2023/01/21 03:19:41;;;;;;;79.00;31.30;;;;;;;7.09;71.22;100186.42;108045;1254;76111;-63
2023/01/21 03:22:14;;;;;;;82.00;31.60;;;;;;;7.23;70.63;100188.37;107958;1256;71222;-65
2023/01/21 03:24:42;;;;;;;82.30;30.90;;;;;;;7.41;70.15;100182.73;107974;1254;73800;-63
2023/01/21 03:27:10;;;;;;;79.10;31.30;;;;;;;7.18;70.38;100190.40;108038;1256;62990;-66
2023/01/21 03:29:37;;;;;;;70.80;28.30;;;;;;;7.14;70.69;100184.23;107977;1254;61983;-63
2023/01/21 03:32:05;;;;;;;73.10;29.70;;;;;;;6.87;71.17;100178.15;108006;1258;75754;-64
2023/01/21 03:34:33;;;;;;;77.80;29.50;;;;;;;7.14;70.60;100185.27;108114;1254;72518;-63
2023/01/21 03:37:03;;;;;;;74.60;30.90;;;;;;;7.06;70.38;100173.04;107815;1254;74864;-64
2023/01/21 03:39:59;;;;;;;63.20;27.10;;;;;;;7.12;70.44;100161.38;107930;1254;60444;-62
2023/01/21 03:42:26;;;;;;;65.30;27.40;;;;;;;7.42;69.39;100173.79;107726;1254;60976;-62
2023/01/21 03:44:53;;;;;;;72.90;29.20;;;;;;;7.29;69.56;100191.73;107785;1254;76109;-64
2023/01/21 03:47:28;;;;;;;76.40;30.10;;;;;;;7.17;70.18;100178.90;108042;1259;72284;-64
2023/01/21 03:49:59;;;;;;;69.90;27.40;;;;;;;7.05;70.09;100165.02;108033;1254;74954;-63
2023/01/21 03:52:26;;;;;;;76.40;29.50;;;;;;;7.21;69.63;100162.23;108087;1258;63204;-63
2023/01/21 03:54:53;;;;;;;73.90;30.00;;;;;;;7.35;69.18;100154.75;108002;1253;62773;-62
2023/01/21 03:57:20;;;;;;;69.50;28.10;;;;;;;7.26;69.38;100164.39;107838;1253;75201;-63
2023/01/21 03:59:47;;;;;;;62.10;27.80;;;;;;;7.26;69.39;100175.92;108053;1253;72258;-63
2023/01/21 04:02:18;;;;;;;68.70;27.20;;;;;;;7.30;69.27;100187.86;108047;1253;74488;-63
2023/01/21 04:04:46;;;;;;;66.70;27.10;;;;;;;7.26;69.34;100164.56;108050;1253;62777;-64
2023/01/21 04:07:14;;;;;;;65.30;27.10;;;;;;;7.21;69.11;100147.20;108035;1253;61984;-62
2023/01/21 04:09:40;;;;;;;64.60;21.70;;;;;;;7.26;68.72;100173.11;108114;1253;75525;-64
2023/01/21 04:12:08;;;;;;;64.60;27.50;;;;;;;7.36;68.37;100162.06;108064;1253;72169;-62
2023/01/21 04:14:34;;;;;;;70.10;27.80;;;;;;;7.48;68.05;100171.73;108042;1253;70980;-61
2023/01/21 04:17:01;;;;;;;71.90;27.30;;;;;;;7.73;66.97;100160.82;108049;1253;63115;-62
2023/01/21 04:19:28;;;;;;;69.10;24.90;;;;;;;7.75;66.86;100179.64;108081;1253;62446;-62
2023/01/21 04:21:55;;;;;;;68.10;26.40;;;;;;;7.71;66.87;100175.19;108108;1253;76563;-63
2023/01/21 04:24:22;;;;;;;74.80;27.50;;;;;;;7.79;66.04;100168.37;108052;1253;70293;-63
2023/01/21 04:26:48;;;;;;;59.40;24.40;;;;;;;7.62;66.58;100172.42;108047;1254;74509;-62
2023/01/21 04:29:16;;;;;;;67.80;25.80;;;;;;;7.67;66.56;100182.27;107992;1253;63492;-62
2023/01/21 04:31:43;;;;;;;65.60;27.50;;;;;;;7.81;66.22;100184.55;107989;1253;61215;-63
2023/01/21 04:34:10;;;;;;;71.70;24.70;;;;;;;7.90;65.88;100193.77;108123;1253;76092;-62
2023/01/21 04:36:36;;;;;;;64.90;25.30;;;;;;;7.89;65.82;100192.23;107976;1253;70982;-62
2023/01/21 04:39:03;;;;;;;68.50;25.80;;;;;;;7.96;65.56;100200.98;107937;1253;73746;-62
2023/01/21 04:41:30;;;;;;;68.60;25.60;;;;;;;8.09;65.18;100195.23;108030;1259;63173;-63
2023/01/21 04:43:57;;;;;;;67.30;27.60;;;;;;;7.77;65.57;100188.88;108006;1253;60328;-64
2023/01/21 04:46:24;;;;;;;66.50;26.40;;;;;;;7.98;65.03;100191.83;108058;1253;75966;-64
2023/01/21 04:48:54;;;;;;;65.00;26.40;;;;;;;7.82;65.20;100187.86;108069;1254;72743;-66
2023/01/21 04:51:20;;;;;;;65.70;24.20;;;;;;;7.75;65.51;100202.01;107876;1256;71545;-65
2023/01/21 04:53:47;;;;;;;66.50;26.60;;;;;;;7.60;65.92;100214.27;107904;1255;63399;-63
2023/01/21 04:56:14;;;;;;;65.80;26.80;;;;;;;7.22;67.01;100215.80;108021;1254;61093;-64
2023/01/21 04:58:41;;;;;;;58.70;24.30;;;;;;;7.19;67.28;100212.02;107936;1254;73804;-65
2023/01/21 05:01:08;;;;;;;70.60;26.40;;;;;;;7.60;66.33;100206.55;107923;1254;71484;-63
2023/01/21 05:03:34;;;;;;;61.00;24.20;;;;;;;7.85;65.80;100207.20;107925;1259;73604;-63
2023/01/21 05:06:01;;;;;;;65.40;24.60;;;;;;;7.95;65.17;100209.73;107924;1254;63174;-63
2023/01/21 05:08:29;;;;;;;64.10;25.90;;;;;;;7.76;65.42;100213.52;108006;1254;61177;-63
2023/01/21 05:10:56;;;;;;;69.20;25.50;;;;;;;7.69;65.49;100221.20;107900;1254;75577;-64
2023/01/21 05:13:23;;;;;;;66.90;25.20;;;;;;;7.67;65.45;100219.84;107905;1254;71976;-64
2023/01/21 05:15:50;;;;;;;54.60;22.60;;;;;;;7.76;65.38;100206.35;107956;1255;74672;-63
2023/01/21 05:18:16;;;;;;;62.60;24.10;;;;;;;7.90;64.87;100221.92;107975;1256;63333;-62
2023/01/21 05:20:43;;;;;;;57.40;23.50;;;;;;;7.94;64.55;100216.23;108014;1260;61478;-63
2023/01/21 05:23:10;;;;;;;56.90;23.90;;;;;;;8.05;64.52;100219.29;108019;1254;75091;-63
2023/01/21 05:25:37;;;;;;;71.90;26.30;;;;;;;8.17;64.02;100216.88;107923;1254;71996;-64
2023/01/21 05:28:04;;;;;;;65.70;25.50;;;;;;;7.93;64.59;100208.93;107909;1254;74599;-64
2023/01/21 05:30:30;;;;;;;62.70;25.00;;;;;;;8.06;64.01;100205.63;107985;1254;62101;-63
2023/01/21 05:32:57;;;;;;;60.20;25.30;;;;;;;8.25;63.42;100207.05;107952;1254;62646;-60
2023/01/21 05:35:24;;;;;;;64.10;25.10;;;;;;;8.31;63.14;100212.86;107949;1254;75425;-64
2023/01/21 05:37:51;;;;;;;65.70;25.80;;;;;;;8.58;62.26;100208.84;107899;1254;72365;-64
2023/01/21 05:40:18;;;;;;;57.30;23.30;;;;;;;8.72;61.72;100217.35;107881;1256;73887;-63
2023/01/21 05:42:45;;;;;;;61.80;24.80;;;;;;;8.78;61.51;100210.02;107957;1254;63130;-63
2023/01/21 05:45:12;;;;;;;71.00;25.30;;;;;;;8.73;61.81;100211.21;107905;1255;61833;-64
2023/01/21 05:47:39;;;;;;;64.20;25.30;;;;;;;8.29;62.50;100207.64;108000;1253;76203;-64
2023/01/21 05:50:08;;;;;;;56.60;24.20;;;;;;;8.61;61.87;100202.43;108110;1258;70844;-65
2023/01/21 05:52:34;;;;;;;61.00;25.20;;;;;;;8.69;61.38;100204.31;108120;1253;73392;-63
2023/01/21 05:55:01;;;;;;;69.60;25.60;;;;;;;8.45;61.96;100201.11;107997;1256;62557;-64
2023/01/21 05:57:29;;;;;;;64.00;25.10;;;;;;;8.04;63.08;100205.32;108010;1259;61597;-63
2023/01/21 05:59:56;;;;;;;64.00;24.40;;;;;;;8.11;63.10;100212.32;108072;1253;72603;-64
2023/01/21 06:02:23;;;;;;;58.30;23.90;;;;;;;8.10;63.03;100213.20;107992;1253;72325;-64
2023/01/21 06:04:50;;;;;;;59.50;23.90;;;;;;;8.25;62.85;100220.70;107992;1256;72810;-62
2023/01/21 06:07:17;;;;;;;52.40;22.40;;;;;;;8.03;63.28;100219.51;108010;1256;61767;-61
2023/01/21 06:09:44;;;;;;;55.90;23.20;;;;;;;7.81;63.84;100210.77;108119;1253;61748;-65
2023/01/21 06:12:11;;;;;;;57.90;23.30;;;;;;;8.11;63.02;100229.60;107944;1253;76021;-63
2023/01/21 06:14:37;;;;;;;60.60;25.20;;;;;;;7.91;63.61;100218.91;108002;1253;71295;-64
2023/01/21 06:17:04;;;;;;;60.80;24.40;;;;;;;8.12;62.68;100210.17;108036;1254;73934;-64
2023/01/21 06:19:31;;;;;;;58.10;23.70;;;;;;;8.20;62.79;100210.49;108079;1253;62148;-61
2023/01/21 06:21:58;;;;;;;58.80;24.90;;;;;;;8.32;62.39;100206.18;108038;1253;61151;-62
2023/01/21 06:24:25;;;;;;;62.20;24.20;;;;;;;7.93;63.13;100209.08;108051;1253;75750;-66
2023/01/21 06:26:52;;;;;;;64.80;24.50;;;;;;;7.40;65.00;100214.73;108085;1253;70486;-65
2023/01/21 06:29:19;;;;;;;52.90;23.90;;;;;;;7.24;65.81;100228.34;107981;1254;74447;-65
2023/01/21 06:31:45;;;;;;;59.40;23.00;;;;;;;7.17;65.93;100228.67;108017;1255;62878;-65
2023/01/21 06:34:13;;;;;;;59.40;22.60;;;;;;;7.14;66.40;100218.97;107999;1253;62654;-66
2023/01/21 06:36:41;;;;;;;61.40;22.10;;;;;;;7.46;65.76;100224.00;107975;1253;76141;-65
2023/01/21 06:39:09;;;;;;;55.10;23.10;;;;;;;7.53;65.34;100227.70;107903;1253;71905;-63
2023/01/21 06:41:36;;;;;;;59.00;24.20;;;;;;;7.20;65.90;100230.00;107998;1253;75625;-64
2023/01/21 06:44:03;;;;;;;62.10;25.30;;;;;;;7.32;65.91;100224.50;108016;1253;62078;-64
2023/01/21 06:46:30;;;;;;;63.50;25.60;;;;;;;7.29;65.82;100214.59;107904;1253;61269;-64
2023/01/21 06:48:57;;;;;;;68.00;26.40;;;;;;;7.53;65.30;100215.81;107910;1254;75565;-64
2023/01/21 06:51:24;;;;;;;57.50;23.60;;;;;;;7.62;64.62;100219.27;107879;1254;72518;-64
2023/01/21 06:53:51;;;;;;;57.90;24.00;;;;;;;7.19;65.74;100227.92;108034;1254;75445;-65
2023/01/21 06:56:18;;;;;;;67.90;25.80;;;;;;;7.18;66.14;100228.81;107970;1254;63044;-63
2023/01/21 06:58:45;;;;;;;58.50;24.50;;;;;;;7.10;66.64;100228.10;107960;1254;62357;-63
2023/01/21 07:01:12;;;;;;;51.20;22.40;;;;;;;7.24;66.09;100232.00;107955;1254;76495;-63
2023/01/21 07:03:39;;;;;;;62.10;25.70;;;;;;;7.44;65.94;100229.48;107986;1254;71560;-64
2023/01/21 07:06:05;;;;;;;58.30;25.30;;;;;;;7.54;65.23;100238.14;107945;1256;73566;-64
2023/01/21 07:08:33;;;;;;;60.10;24.00;;;;;;;7.85;64.26;100236.55;107847;1256;63182;-64
2023/01/21 07:11:00;;;;;;;64.30;24.60;;;;;;;7.79;64.23;100231.45;107882;1255;61326;-64
2023/01/21 07:24:20;;;;;;;58.50;24.40;;;;;;;7.87;63.92;100244.27;105613;1283;612626;-65
2023/01/21 07:26:47;;;;;;;58.40;23.50;;;;;;;8.39;61.80;100256.91;107108;1267;120255;-63
2023/01/21 07:29:14;;;;;;;60.20;23.70;;;;;;;8.39;61.42;100263.73;107287;1266;59128;-65
2023/01/21 07:31:41;;;;;;;57.60;23.90;;;;;;;8.42;61.53;100274.67;107722;1256;72994;-64
2023/01/21 07:34:08;;;;;;;53.10;24.00;;;;;;;8.12;61.95;100278.91;107741;1256;72874;-63
2023/01/21 07:36:35;;;;;;;60.60;24.70;;;;;;;8.03;62.44;100282.96;107826;1258;73460;-65
2023/01/21 07:39:02;;;;;;;56.00;23.70;;;;;;;8.16;61.97;100289.31;107813;1258;62273;-65
2023/01/21 07:41:29;;;;;;;58.40;24.60;;;;;;;8.07;62.05;100287.08;107878;1257;60071;-66
2023/01/21 07:43:55;;;;;;;47.00;19.00;;;;;;;8.09;61.92;100289.12;107847;1257;73587;-68
2023/01/21 07:46:22;;;;;;;60.70;25.00;;;;;;;7.86;62.38;100286.35;107931;1258;72378;-64
2023/01/21 07:48:50;;;;;;;66.70;24.30;;;;;;;7.96;62.07;100291.38;107925;1257;72707;-65
2023/01/21 07:51:18;;;;;;;51.50;21.00;;;;;;;8.02;62.26;100294.20;107917;1260;62351;-64
2023/01/21 07:53:45;;;;;;;47.40;21.20;;;;;;;7.73;62.93;100301.67;107910;1256;62747;-66
2023/01/21 07:56:12;;;;;;;58.40;23.50;;;;;;;7.93;62.56;100297.91;107942;1257;75626;-65
2023/01/21 07:58:39;;;;;;;55.90;21.30;;;;;;;8.24;61.60;100300.99;107930;1256;72863;-65
2023/01/21 08:01:09;;;;;;;51.20;22.20;;;;;;;8.29;61.06;100311.38;107775;1257;74759;-64
2023/01/21 08:03:36;;;;;;;50.10;21.60;;;;;;;7.99;61.79;100313.13;107970;1257;62061;-65
2023/01/21 08:06:06;;;;;;;57.80;23.90;;;;;;;7.66;62.96;100319.31;107747;1256;62661;-64
2023/01/21 08:08:33;;;;;;;55.70;22.30;;;;;;;7.71;62.88;100321.99;107643;1257;75316;-65
2023/01/21 08:11:00;;;;;;;59.90;24.70;;;;;;;7.67;63.59;100319.81;107796;1257;72329;-63
2023/01/21 08:13:26;;;;;;;61.00;20.80;;;;;;;7.58;63.88;100328.39;107872;1256;74345;-65
2023/01/21 08:15:54;;;;;;;56.70;23.00;;;;;;;7.28;64.54;100343.17;107616;1257;63317;-65
2023/01/21 08:18:22;;;;;;;58.30;23.80;;;;;;;7.54;64.36;100336.16;107802;1257;60695;-65
2023/01/21 08:20:56;;;;;;;56.70;23.90;;;;;;;7.66;63.69;100340.63;107787;1257;72306;-64
2023/01/21 08:23:24;;;;;;;52.60;23.20;;;;;;;8.01;62.86;100337.06;107774;1257;70746;-65
2023/01/21 08:25:51;;;;;;;56.50;22.60;;;;;;;7.90;62.59;100341.14;107757;1257;72862;-64
2023/01/21 08:28:18;;;;;;;68.40;23.60;;;;;;;8.05;62.01;100340.44;107757;1257;63467;-67
2023/01/21 08:30:45;;;;;;;53.20;22.70;;;;;;;8.26;61.72;100341.00;107796;1260;62488;-65
2023/01/21 08:33:12;;;;;;;52.50;22.30;;;;;;;7.91;62.82;100350.21;107726;1257;75318;-64
2023/01/21 08:35:39;;;;;;;58.50;24.70;;;;;;;7.95;62.86;100350.14;107741;1258;72401;-64
2023/01/21 08:38:06;;;;;;;63.40;23.50;;;;;;;7.73;63.10;100345.36;107738;1257;73883;-65
2023/01/21 08:40:33;;;;;;;59.90;23.60;;;;;;;7.79;62.97;100355.02;107610;1257;61558;-65
2023/01/21 08:43:01;;;;;;;60.20;24.30;;;;;;;7.52;63.66;100351.77;107791;1257;60529;-64
2023/01/21 08:45:28;;;;;;;58.90;22.30;;;;;;;7.57;63.86;100352.88;107887;1257;74887;-66
2023/01/21 08:47:55;;;;;;;53.20;22.70;;;;;;;7.68;63.87;100361.39;107756;1259;70407;-67
2023/01/21 08:50:22;;;;;;;54.60;23.20;;;;;;;7.69;64.37;100367.84;107711;1259;74648;-66
2023/01/21 08:52:51;;;;;;;64.40;25.40;;;;;;;7.69;64.02;100377.25;107695;1259;62665;-65
2023/01/21 08:55:18;;;;;;;59.10;24.60;;;;;;;7.76;63.47;100376.75;107747;1259;61681;-65
2023/01/21 08:57:45;;;;;;;60.60;25.40;;;;;;;7.74;63.41;100374.72;107852;1259;73269;-63
2023/01/21 09:00:13;;;;;;;57.10;23.60;;;;;;;8.09;62.55;100372.70;107735;1259;71052;-64
2023/01/21 09:02:40;;;;;;;64.30;24.80;;;;;;;8.03;62.86;100377.38;107756;1262;74922;-63
2023/01/21 09:05:07;;;;;;;69.40;26.90;;;;;;;8.08;62.59;100379.39;107680;1262;61857;-66
2023/01/21 09:07:34;;;;;;;59.40;25.60;;;;;;;7.80;63.14;100375.45;107708;1258;62506;-63
2023/01/21 09:10:04;;;;;;;62.90;25.70;;;;;;;7.91;63.15;100378.70;107782;1260;74371;-64
2023/01/21 09:12:31;;;;;;;56.90;21.10;;;;;;;7.95;63.00;100374.79;107790;1259;72576;-65
2023/01/21 09:14:58;;;;;;;56.80;22.90;;;;;;;8.17;62.67;100372.52;107758;1263;73744;-64
2023/01/21 09:17:25;;;;;;;71.10;25.70;;;;;;;8.47;61.96;100365.54;107721;1262;64279;-65
2023/01/21 09:19:52;;;;;;;56.20;22.90;;;;;;;8.07;62.62;100366.46;107715;1262;62109;-65
2023/01/21 09:22:21;;;;;;;50.10;19.80;;;;;;;8.19;62.50;100373.89;107737;1257;74802;-64
2023/01/21 09:24:48;;;;;;;53.40;22.90;;;;;;;8.01;62.97;100371.16;107934;1257;72211;-65
2023/01/21 09:27:14;;;;;;;59.20;23.70;;;;;;;8.20;62.65;100380.52;107834;1257;74873;-65
2023/01/21 09:29:41;;;;;;;61.20;23.70;;;;;;;8.35;62.39;100378.92;107762;1257;62335;-65
2023/01/21 09:32:08;;;;;;;55.00;21.40;;;;;;;8.29;62.25;100378.89;107888;1260;62235;-66
2023/01/21 09:34:35;;;;;;;60.10;24.30;;;;;;;8.16;62.59;100376.40;107813;1257;75554;-65
2023/01/21 09:37:03;;;;;;;67.10;24.30;;;;;;;7.86;63.95;100379.53;107858;1258;72531;-65
2023/01/21 09:39:30;;;;;;;58.90;23.60;;;;;;;7.86;64.18;100373.75;107879;1257;73771;-63
2023/01/21 09:41:57;;;;;;;70.30;25.70;;;;;;;8.06;63.80;100368.58;107884;1257;61539;-63
2023/01/21 09:44:33;;;;;;;71.80;25.70;;;;;;;8.04;63.52;100373.52;107895;1257;62176;-63
2023/01/21 09:47:25;;;;;;;61.20;25.80;;;;;;;7.95;63.96;100371.46;107769;1254;73964;-64
2023/01/21 09:49:57;;;;;;;69.50;26.40;;;;;;;8.10;63.74;100378.64;107975;1254;71467;-64
2023/01/21 14:11:34;;;;;;;54.60;25.00;;;;;;;4.25;100.00;100580.55;105973;1278;614016;-63
2023/01/21 14:14:16;;;;;;;66.70;25.60;;;;;;;5.62;100.00;100584.70;107174;1272;114677;-62
2023/01/21 14:16:49;;;;;;;58.90;25.30;;;;;;;5.71;100.00;100591.77;108230;1251;62256;-64
2023/01/21 14:19:40;;;;;;;61.10;24.50;;;;;;;5.71;100.00;100594.72;108271;1252;74712;-64
2023/01/21 14:22:35;;;;;;;61.40;25.30;;;;;;;6.18;100.00;100603.15;108126;1251;71325;-65
2023/01/21 14:25:44;;;;;;;62.50;24.70;;;;;;;6.28;100.00;100608.61;108193;1253;74760;-65
2023/01/21 14:28:15;;;;;;;61.10;23.90;;;;;;;6.38;100.00;100618.95;108110;1254;59748;-65
2023/01/21 14:30:45;;;;;;;58.30;21.00;;;;;;;6.04;100.00;100621.95;108084;1252;62562;-65
2023/01/21 14:33:16;;;;;;;72.90;26.10;;;;;;;6.33;100.00;100629.13;108039;1253;73211;-65
2023/01/21 14:36:08;;;;;;;61.70;25.40;;;;;;;6.43;100.00;100633.02;108073;1254;72392;-65
2023/01/21 14:38:55;;;;;;;69.00;24.80;;;;;;;6.34;100.00;100632.09;108057;1253;74759;-64
2023/01/21 14:41:21;;;;;;;63.30;24.70;;;;;;;6.53;100.00;100641.47;108108;1254;63722;-65
2023/01/21 14:43:50;;;;;;;53.20;20.80;;;;;;;6.71;100.00;100647.17;108140;1253;61322;-64
2023/01/21 14:46:32;;;;;;;74.90;24.70;;;;;;;6.54;100.00;100650.16;108161;1253;75378;-65
2023/01/21 14:49:07;;;;;;;73.40;25.30;;;;;;;6.61;100.00;100654.63;108090;1254;70484;-65
2023/01/21 14:51:41;;;;;;;73.90;24.90;;;;;;;6.69;100.00;100665.16;108070;1254;74994;-64
2023/01/21 14:54:14;;;;;;;60.20;24.80;;;;;;;6.42;100.00;100664.78;108049;1254;61206;-65
2023/01/21 14:56:54;;;;;;;69.70;26.20;;;;;;;6.60;100.00;100662.47;108089;1254;62329;-65
2023/01/21 14:59:36;;;;;;;66.60;24.70;;;;;;;6.67;100.00;100658.03;107981;1254;75036;-65
2023/01/21 15:02:27;;;;;;;76.30;25.50;;;;;;;6.55;100.00;100655.40;108048;1257;72529;-65
2023/01/21 15:04:58;;;;;;;72.50;27.60;;;;;;;6.71;100.00;100656.77;107907;1256;75090;-65
2023/01/21 15:07:32;;;;;;;61.00;23.20;;;;;;;6.81;100.00;100657.33;107861;1256;61738;-63
2023/01/21 15:10:01;;;;;;;76.10;28.30;;;;;;;6.93;100.00;100661.54;107772;1257;61712;-65
2023/01/21 15:12:30;;;;;;;62.80;25.90;;;;;;;6.89;100.00;100661.95;107919;1256;74174;-63
2023/01/21 15:15:02;;;;;;;56.10;23.00;;;;;;;6.90;100.00;100672.05;108171;1257;70484;-65
2023/01/21 15:18:07;;;;;;;48.00;22.50;;;;;;;7.04;100.00;100667.66;107806;1256;75319;-65
2023/01/21 15:20:41;;;;;;;48.60;19.60;;;;;;;7.05;100.00;100673.95;107517;1261;63438;-65
2023/01/21 15:23:26;;;;;;;56.10;23.00;;;;;;;6.85;100.00;100674.90;107503;1261;62340;-64
2023/01/21 15:26:10;;;;;;;54.40;22.90;;;;;;;6.62;100.00;100676.59;107797;1256;75124;-65
2023/01/21 15:28:38;;;;;;;55.70;22.10;;;;;;;6.83;100.00;100676.69;108115;1256;71810;-64
2023/01/21 15:31:07;;;;;;;50.80;22.00;;;;;;;7.13;100.00;100680.65;107986;1257;74829;-65
2023/01/21 15:33:37;;;;;;;54.00;22.90;;;;;;;6.97;100.00;100684.54;107974;1256;62984;-62
2023/01/21 15:36:04;;;;;;;46.20;20.40;;;;;;;7.02;100.00;100691.45;107873;1256;59974;-65
2023/01/21 15:38:31;;;;;;;53.00;21.60;;;;;;;7.01;100.00;100696.52;108041;1257;74766;-65
2023/01/21 15:41:05;;;;;;;44.60;20.90;;;;;;;6.88;100.00;100704.53;107739;1255;69010;-65
2023/01/21 15:44:04;;;;;;;53.90;23.20;;;;;;;6.93;100.00;100704.65;107916;1257;74749;-65
2023/01/21 15:46:45;;;;;;;69.90;25.50;;;;;;;7.03;100.00;100705.23;107714;1257;63599;-66
2023/01/21 15:49:30;;;;;;;56.50;23.20;;;;;;;7.14;100.00;100708.39;107889;1257;62598;-67
2023/01/21 15:52:20;;;;;;;288.10;106.30;;;;;;;7.34;100.00;100712.98;108117;1256;74984;-64
2023/01/21 15:55:04;;;;;;;134.10;52.10;;;;;;;7.14;100.00;100714.16;107908;1256;72759;-63